createdAt,value
2017-08-05T00:00:51.399Z,99.90
2017-08-05T00:03:17.880Z,99.90
2017-08-05T00:05:44.377Z,99.90
2017-08-05T00:08:10.853Z,99.90
2017-08-05T00:10:37.376Z,99.90
2017-08-05T00:13:03.846Z,99.90
2017-08-05T00:15:30.343Z,99.90
2017-08-05T00:17:56.800Z,99.90
2017-08-05T00:20:23.290Z,99.90
2017-08-05T00:22:51.529Z,99.90
2017-08-05T00:25:18.044Z,99.90
2017-08-05T00:27:44.499Z,99.90
2017-08-05T00:30:10.995Z,99.90
2017-08-05T00:32:37.469Z,99.90
2017-08-05T00:35:04.968Z,99.90
2017-08-05T00:37:31.464Z,99.90
2017-08-05T00:39:57.968Z,99.90
2017-08-05T00:42:24.448Z,99.90
2017-08-05T00:44:50.941Z,99.90
2017-08-05T00:47:17.409Z,99.90
2017-08-05T00:49:43.904Z,99.90
2017-08-05T00:52:10.376Z,99.90
2017-08-05T00:54:36.877Z,99.90
2017-08-05T00:57:03.364Z,99.90
2017-08-05T00:59:30.922Z,99.90
2017-08-05T01:01:58.133Z,99.90
2017-08-05T01:04:24.599Z,99.90
2017-08-05T01:06:51.811Z,99.90
2017-08-05T01:09:18.409Z,99.90
2017-08-05T01:11:44.821Z,99.90
2017-08-05T01:14:11.973Z,99.90
2017-08-05T01:16:40.149Z,99.90
2017-08-05T01:19:07.301Z,99.90
2017-08-05T01:21:34.464Z,99.90
2017-08-05T01:24:01.917Z,99.90
2017-08-05T01:26:28.333Z,99.90
2017-08-05T01:28:54.809Z,99.90
2017-08-05T01:31:21.228Z,99.90
2017-08-05T01:33:47.663Z,99.90
2017-08-05T01:36:14.068Z,99.90
2017-08-05T01:38:41.230Z,99.90
2017-08-05T01:41:07.717Z,99.90
2017-08-05T01:43:34.137Z,99.90
2017-08-05T01:46:00.575Z,99.90
2017-08-05T01:48:27.016Z,99.90
2017-08-05T01:50:53.457Z,99.90
2017-08-05T01:53:19.914Z,99.90
2017-08-05T01:55:47.102Z,99.90
2017-08-05T01:58:13.516Z,99.90
2017-08-05T02:00:39.991Z,99.90
2017-08-05T02:03:06.437Z,99.90
2017-08-05T02:05:32.888Z,99.90
2017-08-05T02:08:00.118Z,99.90
2017-08-05T02:10:26.584Z,99.90
2017-08-05T02:12:52.993Z,99.90
2017-08-05T02:15:19.436Z,99.90
2017-08-05T02:17:46.585Z,99.90
2017-08-05T02:20:13.765Z,99.90
2017-08-05T02:22:40.288Z,99.90
2017-08-05T02:25:06.758Z,99.90
2017-08-05T02:27:33.183Z,99.90
2017-08-05T02:29:59.628Z,99.90
2017-08-05T02:32:26.043Z,99.90
2017-08-05T02:34:52.486Z,99.90
2017-08-05T02:37:18.883Z,99.90
2017-08-05T02:39:45.345Z,99.90
2017-08-05T02:42:11.781Z,99.90
2017-08-05T02:44:38.212Z,99.90
2017-08-05T02:47:04.613Z,99.90
2017-08-05T02:49:31.004Z,99.90
2017-08-05T02:51:58.490Z,99.90
2017-08-05T02:54:25.671Z,99.90
2017-08-05T02:56:52.089Z,99.90
2017-08-05T02:59:18.515Z,99.90
2017-08-05T03:01:44.933Z,99.90
2017-08-05T03:04:12.077Z,99.90
2017-08-05T03:06:38.470Z,99.90
2017-08-05T03:09:04.877Z,99.90
2017-08-05T03:11:31.281Z,99.90
2017-08-05T03:13:58.422Z,99.90
2017-08-05T03:16:25.574Z,99.90
2017-08-05T03:18:52.716Z,99.90
2017-08-05T03:21:19.885Z,99.90
2017-08-05T03:23:48.066Z,99.90
2017-08-05T03:26:14.468Z,99.90
2017-08-05T03:28:40.872Z,99.90
2017-08-05T03:31:07.278Z,99.90
2017-08-05T03:33:33.686Z,99.90
2017-08-05T03:36:00.833Z,99.90
2017-08-05T03:38:28.989Z,99.90
2017-08-05T03:40:55.411Z,99.90
2017-08-05T03:43:21.833Z,99.90
2017-08-05T03:45:48.246Z,99.90
2017-08-05T03:48:14.653Z,99.90
2017-08-05T03:50:41.078Z,99.90
2017-08-05T03:53:07.499Z,99.90
2017-08-05T03:55:33.893Z,99.90
2017-08-05T03:58:00.312Z,99.90
2017-08-05T04:00:26.785Z,99.90
2017-08-05T04:02:53.936Z,99.90
2017-08-05T04:05:21.130Z,99.90
2017-08-05T04:07:47.563Z,99.90
2017-08-05T04:10:14.004Z,99.90
2017-08-05T04:12:40.455Z,99.90
2017-08-05T04:15:06.890Z,99.90
2017-08-05T04:17:33.296Z,99.90
2017-08-05T04:19:59.715Z,99.90
2017-08-05T04:22:26.146Z,99.90
2017-08-05T04:24:52.560Z,99.90
2017-08-05T04:27:18.968Z,99.90
2017-08-05T04:29:45.367Z,99.90
2017-08-05T04:32:11.795Z,99.90
2017-08-05T04:34:38.408Z,99.90
2017-08-05T04:37:04.972Z,99.90
2017-08-05T04:39:31.599Z,99.90
2017-08-05T04:41:58.025Z,99.90
2017-08-05T04:44:24.437Z,99.90
2017-08-05T04:46:50.845Z,99.90
2017-08-05T04:49:17.253Z,99.90
2017-08-05T04:51:43.651Z,99.90
2017-08-05T04:54:11.166Z,99.90
2017-08-05T04:56:37.591Z,99.90
2017-08-05T04:59:03.992Z,99.90
2017-08-05T05:01:30.472Z,99.90
2017-08-05T05:03:56.898Z,99.90
2017-08-05T05:06:24.094Z,99.90
2017-08-05T05:08:50.492Z,99.90
2017-08-05T05:11:16.942Z,99.90
2017-08-05T05:13:43.356Z,99.90
2017-08-05T05:16:10.510Z,99.90
2017-08-05T05:18:36.966Z,99.90
2017-08-05T05:21:03.391Z,99.90
2017-08-05T05:23:29.933Z,99.90
2017-08-05T05:25:56.340Z,99.90
2017-08-05T05:28:22.758Z,99.90
2017-08-05T05:30:49.244Z,99.90
2017-08-05T05:33:15.650Z,99.90
2017-08-05T05:35:42.068Z,99.90
2017-08-05T05:38:09.227Z,99.90
2017-08-05T05:40:35.641Z,99.90
2017-08-05T05:43:02.851Z,99.90
2017-08-05T05:45:29.275Z,99.90
2017-08-05T05:47:55.690Z,99.90
2017-08-05T05:50:22.096Z,99.90
2017-08-05T05:52:49.278Z,99.90
2017-08-05T05:55:15.737Z,99.90
2017-08-05T05:57:42.136Z,99.90
2017-08-05T06:00:08.575Z,99.90
2017-08-05T06:02:34.998Z,99.90
2017-08-05T06:05:01.401Z,99.90
2017-08-05T06:07:28.589Z,99.90
2017-08-05T06:09:55.010Z,99.90
2017-08-05T06:12:21.431Z,99.90
2017-08-05T06:14:47.833Z,99.90
2017-08-05T06:17:14.254Z,99.90
2017-08-05T06:19:40.719Z,99.90
2017-08-05T06:22:07.865Z,99.90
2017-08-05T06:24:35.019Z,99.90
2017-08-05T06:27:02.181Z,99.90
2017-08-05T06:29:28.610Z,99.90
2017-08-05T06:31:56.094Z,99.90
2017-08-05T06:34:22.510Z,99.90
2017-08-05T06:36:48.930Z,99.90
2017-08-05T06:39:15.354Z,99.90
2017-08-05T06:41:41.762Z,99.90
2017-08-05T06:44:08.200Z,99.90
2017-08-05T06:46:34.601Z,99.90
2017-08-05T06:49:01.026Z,99.90
2017-08-05T06:51:27.457Z,99.90
2017-08-05T06:53:53.861Z,99.90
2017-08-05T06:56:20.309Z,99.90
2017-08-05T06:58:46.708Z,99.90
2017-08-05T07:01:13.114Z,99.90
2017-08-05T07:03:39.526Z,99.90
2017-08-05T07:06:05.933Z,99.90
2017-08-05T07:08:32.377Z,99.90
2017-08-05T07:11:00.626Z,99.90
2017-08-05T07:13:28.104Z,99.90
2017-08-05T07:15:54.501Z,98.80
2017-08-05T07:18:20.919Z,99.90
2017-08-05T07:20:48.117Z,99.50
2017-08-05T07:23:14.521Z,99.30
2017-08-05T07:25:40.940Z,99.90
2017-08-05T07:28:08.107Z,98.90
2017-08-05T07:30:34.527Z,98.90
2017-08-05T07:33:01.741Z,96.90
2017-08-05T07:35:28.151Z,96.90
2017-08-05T07:37:54.565Z,98.00
2017-08-05T07:40:20.991Z,97.60
2017-08-05T07:42:47.400Z,97.10
2017-08-05T07:45:14.603Z,94.10
2017-08-05T07:47:41.027Z,94.00
2017-08-05T07:50:07.452Z,94.00
2017-08-05T07:52:34.888Z,93.20
2017-08-05T07:55:01.304Z,91.40
2017-08-05T07:57:29.537Z,93.60
2017-08-05T07:59:55.950Z,93.60
2017-08-05T08:02:22.358Z,92.10
2017-08-05T08:04:48.764Z,92.70
2017-08-05T08:07:15.168Z,91.40
2017-08-05T08:09:41.626Z,90.80
2017-08-05T08:12:08.046Z,89.10
2017-08-05T08:14:34.457Z,89.30
2017-08-05T08:17:00.870Z,87.20
2017-08-05T08:19:27.292Z,90.10
2017-08-05T08:21:53.750Z,88.50
2017-08-05T08:24:20.169Z,90.20
2017-08-05T08:26:46.586Z,91.10
2017-08-05T08:29:12.988Z,89.70
2017-08-05T08:31:39.421Z,90.50
2017-08-05T08:34:05.932Z,91.00
2017-08-05T08:36:32.341Z,90.60
2017-08-05T08:38:58.760Z,90.70
2017-08-05T08:41:25.160Z,90.20
2017-08-05T08:43:52.317Z,90.80
2017-08-05T08:46:19.518Z,88.30
2017-08-05T08:48:45.924Z,88.20
2017-08-05T08:51:12.321Z,89.10
2017-08-05T08:53:39.469Z,87.40
2017-08-05T08:56:05.872Z,87.40
2017-08-05T08:58:32.359Z,86.20
2017-08-05T09:00:58.785Z,86.30
2017-08-05T09:03:25.210Z,90.00
2017-08-05T09:05:52.356Z,88.70
2017-08-05T09:08:19.531Z,88.60
2017-08-05T09:10:45.936Z,88.50
2017-08-05T09:13:13.085Z,88.70
2017-08-05T09:15:40.264Z,88.30
2017-08-05T09:18:06.676Z,88.20
2017-08-05T09:20:33.834Z,88.10
2017-08-05T09:23:01.286Z,88.10
2017-08-05T09:25:27.689Z,88.50
2017-08-05T09:27:54.096Z,86.80
2017-08-05T09:30:20.501Z,87.80
2017-08-05T09:32:47.964Z,87.90
2017-08-05T09:35:14.379Z,90.10
2017-08-05T09:37:40.784Z,87.90
2017-08-05T09:40:07.958Z,90.00
2017-08-05T09:42:34.371Z,90.10
2017-08-05T09:45:00.776Z,88.90
2017-08-05T09:47:27.241Z,90.60
2017-08-05T09:49:54.408Z,90.00
2017-08-05T09:52:20.863Z,89.30
2017-08-05T09:54:47.290Z,86.50
2017-08-05T09:57:13.728Z,84.50
2017-08-05T09:59:40.157Z,84.80
2017-08-05T10:02:06.625Z,86.30
2017-08-05T10:04:33.029Z,86.30
2017-08-05T10:06:59.450Z,87.10
2017-08-05T10:09:25.882Z,87.50
2017-08-05T10:11:52.299Z,87.30
2017-08-05T10:14:19.729Z,80.90
2017-08-05T10:16:46.879Z,83.80
2017-08-05T10:19:14.028Z,81.70
2017-08-05T10:21:41.180Z,82.70
2017-08-05T10:24:09.364Z,86.40
2017-08-05T10:26:36.557Z,85.50
2017-08-05T10:29:02.965Z,85.50
2017-08-05T10:31:29.364Z,82.00
2017-08-05T10:33:56.509Z,84.50
2017-08-05T10:36:22.941Z,84.30
2017-08-05T10:38:50.146Z,88.30
2017-08-05T10:41:16.561Z,88.40
2017-08-05T10:43:42.960Z,84.70
2017-08-05T10:46:09.360Z,81.00
2017-08-05T10:48:36.780Z,81.50
2017-08-05T10:51:03.221Z,86.00
2017-08-05T10:53:29.624Z,87.20
2017-08-05T10:55:56.786Z,82.00
2017-08-05T10:58:23.189Z,82.00
2017-08-05T11:00:49.600Z,83.00
2017-08-05T11:03:16.036Z,84.10
2017-08-05T11:05:42.440Z,84.80
2017-08-05T11:08:08.861Z,82.20
2017-08-05T11:10:35.286Z,81.40
2017-08-05T11:13:01.686Z,82.20
2017-08-05T11:15:28.085Z,80.20
2017-08-05T11:17:54.527Z,78.70
2017-08-05T11:20:20.948Z,79.50
2017-08-05T11:22:47.410Z,79.20
2017-08-05T11:25:13.826Z,78.10
2017-08-05T11:27:40.405Z,79.40
2017-08-05T11:30:06.811Z,79.90
2017-08-05T11:32:33.953Z,78.50
2017-08-05T11:35:00.401Z,78.20
2017-08-05T11:37:28.584Z,79.00
2017-08-05T11:39:55.753Z,82.10
2017-08-05T11:42:22.162Z,82.10
2017-08-05T11:44:49.334Z,80.00
2017-08-05T11:47:15.741Z,79.90
2017-08-05T11:49:42.137Z,77.80
2017-08-05T11:52:08.545Z,80.80
2017-08-05T11:54:34.966Z,77.70
2017-08-05T11:57:02.395Z,77.10
2017-08-05T11:59:29.564Z,77.20
2017-08-05T12:01:57.856Z,77.10
2017-08-05T12:04:24.265Z,81.30
2017-08-05T12:06:50.699Z,76.80
2017-08-05T12:09:17.100Z,78.00
2017-08-05T12:11:43.508Z,78.50
2017-08-05T12:14:11.039Z,79.30
2017-08-05T12:16:37.943Z,81.40
2017-08-05T12:19:05.106Z,80.80
2017-08-05T12:21:31.515Z,80.70
2017-08-05T12:23:58.674Z,79.00
2017-08-05T12:26:25.820Z,78.00
2017-08-05T12:28:52.970Z,77.30
2017-08-05T12:31:19.376Z,77.30
2017-08-05T12:33:46.843Z,78.30
2017-08-05T12:36:13.252Z,79.60
2017-08-05T12:38:39.705Z,81.90
2017-08-05T12:41:06.126Z,77.50
2017-08-05T12:43:32.676Z,77.70
2017-08-05T12:45:59.082Z,79.00
2017-08-05T12:48:26.555Z,76.00
2017-08-05T12:50:53.021Z,71.10
2017-08-05T12:53:19.522Z,65.80
2017-08-05T12:55:45.932Z,66.70
2017-08-05T12:58:12.347Z,67.50
2017-08-05T13:00:38.798Z,69.80
2017-08-05T13:03:06.235Z,71.20
2017-08-05T13:05:32.669Z,70.70
2017-08-05T13:07:59.076Z,70.90
2017-08-05T13:10:25.464Z,68.60
2017-08-05T13:12:52.907Z,68.20
2017-08-05T13:15:19.353Z,70.40
2017-08-05T13:17:45.765Z,70.10
2017-08-05T13:20:12.224Z,70.00
2017-08-05T13:22:38.644Z,72.50
2017-08-05T13:25:06.076Z,73.00
2017-08-05T13:27:32.496Z,68.80
2017-08-05T13:29:58.932Z,67.90
2017-08-05T13:32:25.333Z,67.10
2017-08-05T13:34:52.527Z,64.00
2017-08-05T13:37:18.930Z,64.00
2017-08-05T13:39:45.364Z,65.70
2017-08-05T13:42:11.782Z,66.20
2017-08-05T13:44:38.954Z,68.20
2017-08-05T13:47:05.370Z,68.10
2017-08-05T13:49:31.819Z,65.90
2017-08-05T13:51:58.224Z,66.20
2017-08-05T13:54:24.656Z,61.30
2017-08-05T13:56:51.066Z,57.90
2017-08-05T13:59:17.509Z,59.10
2017-08-05T14:01:43.920Z,56.10
2017-08-05T14:04:10.364Z,60.00
2017-08-05T14:06:36.785Z,64.20
2017-08-05T14:09:03.225Z,68.40
2017-08-05T14:11:29.632Z,68.80
2017-08-05T14:13:56.054Z,69.40
2017-08-05T14:16:22.503Z,70.60
2017-08-05T14:18:48.930Z,72.30
2017-08-05T14:21:15.350Z,73.50
2017-08-05T14:23:41.770Z,73.40
2017-08-05T14:26:08.182Z,75.00
2017-08-05T14:28:34.649Z,76.20
2017-08-05T14:31:01.061Z,73.40
2017-08-05T14:33:27.481Z,74.30
2017-08-05T14:35:54.646Z,75.80
2017-08-05T14:38:21.060Z,75.80
2017-08-05T14:40:48.256Z,77.30
2017-08-05T14:43:14.656Z,77.10
2017-08-05T14:45:41.073Z,73.80
2017-08-05T14:48:08.221Z,72.70
2017-08-05T14:50:35.368Z,71.70
2017-08-05T14:53:01.817Z,70.90
2017-08-05T14:55:28.963Z,71.10
2017-08-05T14:57:56.119Z,67.60
2017-08-05T15:00:22.543Z,67.40
2017-08-05T15:02:49.688Z,64.30
2017-08-05T15:05:16.875Z,66.10
2017-08-05T15:07:43.292Z,65.90
2017-08-05T15:10:09.737Z,68.90
2017-08-05T15:12:36.136Z,68.90
2017-08-05T15:15:03.316Z,71.20
2017-08-05T15:17:29.730Z,71.20
2017-08-05T15:19:56.179Z,68.40
2017-08-05T15:22:22.592Z,65.60
2017-08-05T15:24:49.046Z,63.30
2017-08-05T15:27:15.471Z,62.10
2017-08-05T15:29:41.905Z,62.90
2017-08-05T15:32:08.308Z,59.40
2017-08-05T15:34:34.752Z,57.50
2017-08-05T15:37:01.918Z,57.00
2017-08-05T15:39:28.378Z,56.90
2017-08-05T15:41:54.790Z,55.70
2017-08-05T15:44:21.235Z,56.60
2017-08-05T15:46:47.654Z,56.80
2017-08-05T15:49:14.066Z,56.20
2017-08-05T15:51:41.222Z,55.60
2017-08-05T15:54:08.389Z,56.70
2017-08-05T15:56:34.815Z,56.60
2017-08-05T15:59:27.228Z,54.50
2017-08-05T16:01:54.434Z,58.60
2017-08-05T16:04:20.857Z,58.60
2017-08-05T16:06:47.256Z,59.30
2017-08-05T16:09:13.660Z,63.60
2017-08-05T16:11:40.143Z,63.00
2017-08-05T16:14:06.546Z,64.00
2017-08-05T16:16:33.701Z,66.20
2017-08-05T16:19:00.105Z,66.20
2017-08-05T16:21:26.533Z,64.80
2017-08-05T16:23:52.989Z,63.50
2017-08-05T16:26:20.155Z,66.60
2017-08-05T16:28:46.552Z,66.60
2017-08-05T16:31:12.969Z,64.70
2017-08-05T16:33:39.392Z,65.00
2017-08-05T16:36:05.832Z,65.70
2017-08-05T16:38:32.253Z,66.70
2017-08-05T16:40:59.718Z,67.80
2017-08-05T16:43:26.130Z,66.90
2017-08-05T16:45:52.535Z,69.40
2017-08-05T16:48:18.976Z,71.70
2017-08-05T16:50:45.386Z,71.50
2017-08-05T16:53:12.529Z,71.50
2017-08-05T16:55:40.685Z,73.60
2017-08-05T16:58:07.121Z,73.60
2017-08-05T17:00:33.581Z,72.00
2017-08-05T17:03:00.749Z,72.10
2017-08-05T17:05:27.169Z,72.00
2017-08-05T17:07:53.571Z,65.60
2017-08-05T17:10:21.039Z,61.60
2017-08-05T17:12:48.201Z,62.90
2017-08-05T17:15:14.652Z,62.90
2017-08-05T17:17:41.048Z,65.70
2017-08-05T17:20:08.244Z,69.10
2017-08-05T17:22:34.650Z,69.10
2017-08-05T17:25:01.784Z,72.00
2017-08-05T17:27:28.933Z,75.80
2017-08-05T17:29:56.081Z,74.00
2017-08-05T17:32:22.489Z,73.90
2017-08-05T17:34:48.898Z,78.20
2017-08-05T17:37:15.322Z,82.00
2017-08-05T17:39:41.725Z,84.60
2017-08-05T17:42:08.905Z,90.10
2017-08-05T17:44:35.318Z,90.00
2017-08-05T17:47:01.745Z,86.40
2017-08-05T17:49:28.161Z,90.80
2017-08-05T17:51:55.313Z,94.10
2017-08-05T17:54:22.498Z,94.00
2017-08-05T17:56:49.915Z,94.00
2017-08-05T17:59:17.068Z,94.60
2017-08-05T18:01:43.472Z,94.50
2017-08-05T18:04:09.873Z,94.30
2017-08-05T18:06:37.326Z,91.90
2017-08-05T18:09:03.814Z,92.80
2017-08-05T18:11:31.009Z,92.30
2017-08-05T18:13:57.426Z,92.10
2017-08-05T18:16:23.837Z,92.30
2017-08-05T18:18:50.989Z,95.30
2017-08-05T18:21:17.399Z,95.30
2017-08-05T18:23:43.849Z,95.00
2017-08-05T18:26:10.318Z,96.60
2017-08-05T18:28:36.731Z,96.50
2017-08-05T18:31:03.154Z,94.40
2017-08-05T18:33:29.567Z,95.00
2017-08-05T18:35:56.033Z,95.50
2017-08-05T18:38:22.436Z,96.00
2017-08-05T18:40:49.597Z,96.90
2017-08-05T18:43:16.832Z,96.90
2017-08-05T18:45:43.238Z,97.00
2017-08-05T18:48:09.697Z,97.20
2017-08-05T18:50:36.111Z,97.70
2017-08-05T18:53:02.520Z,97.60
2017-08-05T18:55:28.922Z,97.90
2017-08-05T18:57:55.331Z,97.80
2017-08-05T19:00:23.525Z,97.90
2017-08-05T19:02:49.935Z,97.90
2017-08-05T19:05:17.098Z,99.20
2017-08-05T19:07:44.243Z,98.90
2017-08-05T19:10:11.400Z,98.60
2017-08-05T19:12:38.544Z,97.80
2017-08-05T19:15:05.709Z,97.90
2017-08-05T19:17:32.108Z,97.90
2017-08-05T19:19:59.545Z,98.10
2017-08-05T19:22:25.955Z,98.80
2017-08-05T19:24:52.364Z,99.40
2017-08-05T19:27:18.836Z,99.20
2017-08-05T19:29:45.250Z,99.70
2017-08-05T19:32:12.741Z,99.90
2017-08-05T19:34:39.152Z,99.90
2017-08-05T19:37:05.602Z,99.90
2017-08-05T19:39:32.044Z,99.90
2017-08-05T19:41:58.489Z,99.90
2017-08-05T19:44:25.632Z,99.90
2017-08-05T19:46:52.045Z,99.90
2017-08-05T19:49:19.483Z,99.90
2017-08-05T19:51:45.902Z,99.90
2017-08-05T19:54:12.308Z,99.90
2017-08-05T19:56:39.731Z,99.90
2017-08-05T19:59:06.702Z,99.90
2017-08-05T20:01:33.853Z,99.90
2017-08-05T20:04:00.999Z,99.90
2017-08-05T20:06:28.166Z,99.90
2017-08-05T20:08:54.604Z,99.90
2017-08-05T20:11:21.006Z,99.90
2017-08-05T20:13:49.196Z,99.90
2017-08-05T20:16:15.608Z,99.90
2017-08-05T20:18:42.774Z,99.90
2017-08-05T20:21:09.226Z,99.90
2017-08-05T20:23:36.674Z,99.90
2017-08-05T20:26:03.080Z,99.90
2017-08-05T20:28:30.241Z,99.90
2017-08-05T20:30:57.396Z,99.90
2017-08-05T20:33:24.587Z,99.90
2017-08-05T20:35:51.008Z,99.90
2017-08-05T20:38:17.418Z,99.90
2017-08-05T20:40:43.830Z,99.90
2017-08-05T20:43:11.338Z,99.90
2017-08-05T20:45:37.806Z,99.90
2017-08-05T20:48:04.230Z,99.90
2017-08-05T20:50:30.629Z,99.90
2017-08-05T20:52:57.036Z,99.90
2017-08-05T20:55:23.450Z,99.90
2017-08-05T20:57:49.903Z,99.90
2017-08-05T21:00:16.319Z,99.90
2017-08-05T21:02:43.468Z,99.90
2017-08-05T21:05:09.877Z,99.90
2017-08-05T21:07:36.279Z,99.90
2017-08-05T21:10:02.700Z,99.90
2017-08-05T21:12:29.114Z,99.90
2017-08-05T21:14:56.541Z,99.90
2017-08-05T21:17:23.698Z,99.90
2017-08-05T21:19:50.108Z,99.90
2017-08-05T21:22:16.508Z,99.90
2017-08-05T21:24:42.924Z,99.90
2017-08-05T21:27:09.348Z,99.90
2017-08-05T21:29:35.802Z,99.90
2017-08-05T21:32:02.230Z,99.90
2017-08-05T21:34:28.663Z,99.90
2017-08-05T21:36:55.081Z,99.90
2017-08-05T21:39:21.502Z,99.90
2017-08-05T21:41:48.932Z,99.90
2017-08-05T21:44:15.342Z,99.90
2017-08-05T21:46:41.774Z,99.90
2017-08-05T21:49:08.192Z,99.90
2017-08-05T21:51:34.642Z,99.90
2017-08-05T21:54:01.059Z,99.90
2017-08-05T21:56:27.497Z,99.90
2017-08-05T21:58:53.914Z,99.90
2017-08-05T22:01:20.370Z,99.90
2017-08-05T22:03:46.787Z,99.90
2017-08-05T22:06:13.281Z,99.90
2017-08-05T22:08:40.520Z,99.90
2017-08-05T22:11:08.702Z,99.90
2017-08-05T22:13:35.874Z,99.90
2017-08-05T22:16:02.280Z,99.90
2017-08-05T22:18:28.724Z,99.90
2017-08-05T22:20:55.159Z,99.90
2017-08-05T22:23:21.607Z,99.90
2017-08-05T22:25:48.033Z,99.90
2017-08-05T22:28:14.486Z,99.90
2017-08-05T22:30:40.932Z,99.90
2017-08-05T22:33:08.366Z,99.90
2017-08-05T22:35:34.773Z,99.90
2017-08-05T22:38:01.206Z,99.90
2017-08-05T22:40:27.609Z,99.90
2017-08-05T22:42:54.082Z,99.90
2017-08-05T22:45:20.493Z,99.90
2017-08-05T22:47:47.640Z,99.90
2017-08-05T22:50:14.816Z,99.90
2017-08-05T22:52:41.232Z,99.90
2017-08-05T22:55:08.416Z,99.90
2017-08-05T22:57:34.849Z,99.90
2017-08-05T23:00:01.273Z,99.90
2017-08-05T23:02:27.708Z,99.90
2017-08-05T23:04:54.128Z,99.90
2017-08-05T23:07:21.596Z,99.90
2017-08-05T23:09:48.010Z,99.90
2017-08-05T23:12:14.425Z,99.90
2017-08-05T23:14:41.639Z,99.90
2017-08-05T23:17:08.082Z,99.90
2017-08-05T23:19:34.540Z,99.90
2017-08-05T23:22:01.714Z,99.90
2017-08-05T23:24:28.174Z,99.90
2017-08-05T23:26:54.590Z,99.90
2017-08-05T23:29:21.021Z,99.90
2017-08-05T23:31:47.480Z,99.90
2017-08-05T23:34:13.908Z,99.90
2017-08-05T23:36:40.356Z,99.90
2017-08-05T23:39:06.781Z,99.90
2017-08-05T23:41:33.200Z,99.90
2017-08-05T23:44:00.684Z,99.90
2017-08-05T23:46:27.094Z,99.90
2017-08-05T23:48:53.518Z,99.90
2017-08-05T23:51:19.955Z,99.90
2017-08-05T23:53:46.379Z,99.90
2017-08-05T23:56:12.866Z,99.90
2017-08-05T23:58:39.284Z,99.90
